LOT7001 EPWA-DAAG
Flight info
| Callsign | LOT7001 |
|---|---|
| Flight time | 3h 8m |
| Altitude | 36000 |
| Route | EVINA DCT NAVUR N744 TUSIN DCT UPLAV DCT MIKOV DCT OBEDI DCT DETSA/N0456F370 DCT PIDAD DCT TALEP DCT VAREK DCT GARPU DCT NAFOQ DCT OTARO UM989 ZEM UM986 ALR DCT |
| Aircraft | E75S/M-SDE2E3FGIJ1RWY/HB1 |
Departure
| Time | 2026-05-04 09:14 |
|---|---|
| Airport | Warsaw Chopin Airport (EPWA) |
Arrival
| Time | 2026-05-04 12:22 |
|---|---|
| Airport | Houari Boumediene Airport (DAAG) |
| Time | Latitude | Longitude | Altitude | Speed | Heading |
|---|---|---|---|---|---|
| 2026-05-04 08:52 | 52.17603 | 20.97272 | 362 ft | 0 kts | 170° |
| 2026-05-04 09:07 | 52.17519 | 20.97295 | 362 ft | 3 kts | 171° |
| 2026-05-04 09:08 | 52.17494 | 20.97262 | 362 ft | 6 kts | 282° |
| 2026-05-04 09:08 | 52.17553 | 20.97208 | 362 ft | 15 kts | 334° |
| 2026-05-04 09:08 | 52.17655 | 20.97112 | 362 ft | 14 kts | 329° |
| 2026-05-04 09:08 | 52.17662 | 20.96980 | 362 ft | 14 kts | 237° |
| 2026-05-04 09:09 | 52.17601 | 20.96826 | 362 ft | 18 kts | 238° |
| 2026-05-04 09:09 | 52.17526 | 20.96626 | 362 ft | 19 kts | 238° |
| 2026-05-04 09:09 | 52.17450 | 20.96457 | 362 ft | 18 kts | 241° |
| 2026-05-04 09:09 | 52.17374 | 20.96411 | 362 ft | 14 kts | 151° |
| 2026-05-04 09:10 | 52.17265 | 20.96507 | 362 ft | 21 kts | 152° |
| 2026-05-04 09:10 | 52.17106 | 20.96645 | 362 ft | 29 kts | 152° |
| 2026-05-04 09:10 | 52.16928 | 20.96802 | 362 ft | 29 kts | 152° |
| 2026-05-04 09:10 | 52.16746 | 20.96960 | 362 ft | 26 kts | 152° |
| 2026-05-04 09:11 | 52.16664 | 20.97056 | 362 ft | 14 kts | 120° |
| 2026-05-04 09:11 | 52.16611 | 20.97236 | 362 ft | 21 kts | 115° |
| 2026-05-04 09:11 | 52.16539 | 20.97494 | 362 ft | 27 kts | 115° |
| 2026-05-04 09:11 | 52.16466 | 20.97753 | 362 ft | 12 kts | 114° |
| 2026-05-04 09:12 | 52.16414 | 20.97806 | 362 ft | 11 kts | 199° |
| 2026-05-04 09:12 | 52.16329 | 20.97739 | 362 ft | 10 kts | 207° |
| 2026-05-04 09:14 | 52.17572 | 20.93314 | 1160 ft | 157 kts | 290° |
| 2026-05-04 09:14 | 52.18013 | 20.91676 | 1732 ft | 165 kts | 289° |
| 2026-05-04 09:14 | 52.18285 | 20.89735 | 1917 ft | 191 kts | 261° |
| 2026-05-04 09:14 | 52.17944 | 20.87541 | 2382 ft | 206 kts | 253° |
| 2026-05-04 09:15 | 52.17568 | 20.85301 | 3134 ft | 209 kts | 255° |
| 2026-05-04 09:15 | 52.17204 | 20.83021 | 3767 ft | 217 kts | 255° |
| 2026-05-04 09:15 | 52.16817 | 20.80495 | 3985 ft | 244 kts | 256° |
| 2026-05-04 09:15 | 52.16412 | 20.77696 | 4295 ft | 265 kts | 257° |
| 2026-05-04 09:17 | 52.07052 | 20.60098 | 9254 ft | 293 kts | 220° |
| 2026-05-04 09:18 | 52.05424 | 20.58047 | 9850 ft | 296 kts | 220° |
| 2026-05-04 09:18 | 52.03800 | 20.56000 | 10425 ft | 299 kts | 220° |
| 2026-05-04 09:18 | 52.02152 | 20.53924 | 10907 ft | 305 kts | 220° |
| 2026-05-04 09:18 | 52.00460 | 20.51794 | 11322 ft | 312 kts | 220° |
| 2026-05-04 09:19 | 51.98721 | 20.49606 | 11716 ft | 320 kts | 220° |
| 2026-05-04 09:19 | 51.96954 | 20.47386 | 12119 ft | 327 kts | 220° |
| 2026-05-04 09:19 | 51.95101 | 20.45209 | 12529 ft | 334 kts | 210° |
| 2026-05-04 09:19 | 51.92858 | 20.44210 | 12992 ft | 342 kts | 189° |
| 2026-05-04 09:20 | 51.90482 | 20.43830 | 13535 ft | 344 kts | 189° |
| 2026-05-04 09:20 | 51.88119 | 20.43466 | 14065 ft | 345 kts | 189° |
| 2026-05-04 09:20 | 51.85722 | 20.43098 | 14557 ft | 347 kts | 189° |
| 2026-05-04 09:20 | 51.83324 | 20.42732 | 15012 ft | 349 kts | 189° |
| 2026-05-04 09:21 | 51.80899 | 20.42362 | 15466 ft | 352 kts | 189° |
| 2026-05-04 09:21 | 51.78457 | 20.41990 | 15929 ft | 355 kts | 189° |
| 2026-05-04 09:21 | 51.75992 | 20.41615 | 16395 ft | 357 kts | 189° |
| 2026-05-04 09:21 | 51.73519 | 20.41239 | 16850 ft | 359 kts | 189° |
| 2026-05-04 09:22 | 51.71017 | 20.40859 | 17295 ft | 362 kts | 189° |
| 2026-05-04 09:22 | 51.68469 | 20.40473 | 17724 ft | 365 kts | 189° |
| 2026-05-04 09:22 | 51.65963 | 20.40093 | 17986 ft | 365 kts | 189° |
| 2026-05-04 09:22 | 51.63427 | 20.39709 | 18289 ft | 371 kts | 189° |
| 2026-05-04 09:23 | 51.60842 | 20.39318 | 18690 ft | 374 kts | 188° |
| 2026-05-04 09:23 | 51.58267 | 20.38929 | 19124 ft | 376 kts | 188° |
| 2026-05-04 09:23 | 51.55668 | 20.38537 | 19553 ft | 377 kts | 188° |
| 2026-05-04 09:23 | 51.53030 | 20.38139 | 19962 ft | 380 kts | 188° |
| 2026-05-04 09:25 | 51.35075 | 20.31498 | 22528 ft | 391 kts | 218° |
| 2026-05-04 09:25 | 51.32887 | 20.28876 | 22876 ft | 394 kts | 218° |
| 2026-05-04 09:26 | 51.30702 | 20.26248 | 23217 ft | 397 kts | 218° |
| 2026-05-04 09:26 | 51.28494 | 20.23590 | 23554 ft | 399 kts | 218° |
| 2026-05-04 09:26 | 51.26277 | 20.20924 | 23907 ft | 402 kts | 218° |
| 2026-05-04 09:26 | 51.24066 | 20.18269 | 24242 ft | 404 kts | 218° |
| 2026-05-04 09:27 | 51.21794 | 20.15542 | 24589 ft | 406 kts | 218° |
| 2026-05-04 09:27 | 51.19582 | 20.12893 | 25164 ft | 401 kts | 218° |
| 2026-05-04 09:27 | 51.17379 | 20.10257 | 25987 ft | 390 kts | 218° |
| 2026-05-04 09:27 | 51.15247 | 20.07708 | 26780 ft | 380 kts | 218° |
| 2026-05-04 09:28 | 51.13179 | 20.05240 | 27587 ft | 369 kts | 218° |
| 2026-05-04 09:28 | 51.11157 | 20.02829 | 28408 ft | 357 kts | 219° |
| 2026-05-04 09:28 | 51.09188 | 20.00482 | 29048 ft | 351 kts | 219° |
| 2026-05-04 09:28 | 51.07244 | 19.98169 | 29450 ft | 352 kts | 219° |
| 2026-05-04 09:29 | 51.05284 | 19.95838 | 29726 ft | 356 kts | 219° |
| 2026-05-04 09:29 | 51.03279 | 19.93456 | 29984 ft | 361 kts | 218° |
| 2026-05-04 09:29 | 51.01279 | 19.91085 | 30284 ft | 364 kts | 219° |
| 2026-05-04 09:29 | 50.99254 | 19.88687 | 30639 ft | 365 kts | 219° |
| 2026-05-04 09:30 | 50.97230 | 19.86294 | 31011 ft | 366 kts | 219° |
| 2026-05-04 09:30 | 50.95189 | 19.83882 | 31389 ft | 367 kts | 219° |
| 2026-05-04 09:30 | 50.93142 | 19.81466 | 31742 ft | 368 kts | 219° |
| 2026-05-04 09:30 | 50.91090 | 19.79048 | 32068 ft | 370 kts | 219° |
| 2026-05-04 09:31 | 50.89015 | 19.76605 | 32384 ft | 372 kts | 219° |
| 2026-05-04 09:31 | 50.86917 | 19.74137 | 32699 ft | 373 kts | 218° |
| 2026-05-04 09:31 | 50.84850 | 19.71709 | 33018 ft | 374 kts | 219° |
| 2026-05-04 09:31 | 50.82751 | 19.69245 | 33334 ft | 376 kts | 218° |
| 2026-05-04 09:32 | 50.80663 | 19.66798 | 33641 ft | 377 kts | 219° |
| 2026-05-04 09:32 | 50.78551 | 19.64326 | 33991 ft | 377 kts | 219° |
| 2026-05-04 09:34 | 50.63854 | 19.47198 | 35981 ft | 379 kts | 218° |
| 2026-05-04 09:34 | 50.61743 | 19.44748 | 36038 ft | 386 kts | 218° |
| 2026-05-04 09:34 | 50.57317 | 19.39623 | 36058 ft | 405 kts | 218° |
| 2026-05-04 09:35 | 50.52668 | 19.34252 | 36059 ft | 424 kts | 218° |
| 2026-05-04 09:35 | 50.47839 | 19.28688 | 36053 ft | 435 kts | 218° |
| 2026-05-04 09:37 | 50.28390 | 19.06423 | 36053 ft | 435 kts | 218° |
| 2026-05-04 09:38 | 50.23525 | 19.00889 | 36051 ft | 434 kts | 218° |
| 2026-05-04 09:38 | 50.18645 | 18.95353 | 36048 ft | 434 kts | 218° |
| 2026-05-04 09:39 | 50.13775 | 18.89842 | 36049 ft | 435 kts | 218° |
| 2026-05-04 09:39 | 50.08894 | 18.84334 | 36039 ft | 434 kts | 218° |
| 2026-05-04 09:40 | 50.04025 | 18.78851 | 36043 ft | 435 kts | 218° |
| 2026-05-04 09:40 | 49.99146 | 18.73372 | 36049 ft | 436 kts | 218° |
| 2026-05-04 09:42 | 49.80851 | 18.49421 | 36055 ft | 431 kts | 235° |
| 2026-05-04 09:43 | 49.77229 | 18.42066 | 36047 ft | 430 kts | 234° |
| 2026-05-04 09:43 | 49.73593 | 18.34734 | 36044 ft | 430 kts | 234° |
| 2026-05-04 09:44 | 49.69966 | 18.27440 | 36054 ft | 431 kts | 234° |
| 2026-05-04 09:46 | 49.55381 | 17.98319 | 36052 ft | 429 kts | 234° |
| 2026-05-04 09:46 | 49.51716 | 17.91050 | 36052 ft | 430 kts | 234° |
| 2026-05-04 09:47 | 49.48043 | 17.83788 | 36047 ft | 429 kts | 234° |
| 2026-05-04 09:49 | 49.33344 | 17.54913 | 36042 ft | 429 kts | 234° |
| 2026-05-04 09:51 | 49.19510 | 17.31016 | 36052 ft | 430 kts | 229° |
| 2026-05-04 09:51 | 49.15525 | 17.24244 | 36044 ft | 429 kts | 229° |
| 2026-05-04 09:52 | 49.11520 | 17.17454 | 36049 ft | 429 kts | 230° |
| 2026-05-04 09:52 | 49.07543 | 17.10731 | 36041 ft | 429 kts | 229° |
| 2026-05-04 09:53 | 49.03530 | 17.03964 | 36043 ft | 431 kts | 229° |
| 2026-05-04 09:53 | 48.99544 | 16.97260 | 36037 ft | 431 kts | 229° |
| 2026-05-04 09:54 | 48.95523 | 16.90515 | 36031 ft | 430 kts | 230° |
| 2026-05-04 09:54 | 48.91505 | 16.83792 | 36023 ft | 430 kts | 229° |
| 2026-05-04 09:55 | 48.87478 | 16.77071 | 36024 ft | 430 kts | 230° |
| 2026-05-04 09:55 | 48.83443 | 16.70353 | 36028 ft | 430 kts | 230° |
| 2026-05-04 09:56 | 48.79415 | 16.63664 | 36020 ft | 430 kts | 230° |
| 2026-05-04 09:56 | 48.76040 | 16.56287 | 36020 ft | 428 kts | 240° |
| 2026-05-04 09:57 | 48.72852 | 16.48635 | 36020 ft | 429 kts | 239° |
| 2026-05-04 09:57 | 48.69672 | 16.41043 | 36011 ft | 428 kts | 239° |
| 2026-05-04 09:58 | 48.66503 | 16.33499 | 36013 ft | 428 kts | 239° |
| 2026-05-04 09:58 | 48.63320 | 16.25945 | 36016 ft | 427 kts | 239° |
| 2026-05-04 10:00 | 48.50538 | 15.95818 | 36011 ft | 427 kts | 239° |
| 2026-05-04 10:04 | 48.30058 | 15.48239 | 36025 ft | 426 kts | 239° |
| 2026-05-04 10:04 | 48.26826 | 15.40806 | 36021 ft | 426 kts | 239° |
| 2026-05-04 10:05 | 48.23607 | 15.33422 | 36019 ft | 425 kts | 238° |
| 2026-05-04 10:05 | 48.20369 | 15.26016 | 36018 ft | 426 kts | 238° |
| 2026-05-04 10:06 | 48.17127 | 15.18623 | 36014 ft | 425 kts | 238° |
| 2026-05-04 10:06 | 48.13871 | 15.11215 | 36011 ft | 425 kts | 238° |
| 2026-05-04 10:08 | 48.02528 | 14.85571 | 36010 ft | 425 kts | 238° |
| 2026-05-04 10:08 | 47.99257 | 14.78220 | 36013 ft | 425 kts | 238° |
| 2026-05-04 10:09 | 47.95992 | 14.70902 | 36017 ft | 425 kts | 238° |
| 2026-05-04 10:09 | 47.92716 | 14.63580 | 36018 ft | 424 kts | 238° |
| 2026-05-04 10:10 | 47.89445 | 14.56289 | 36013 ft | 424 kts | 238° |
| 2026-05-04 10:10 | 47.86168 | 14.49003 | 36023 ft | 425 kts | 238° |
| 2026-05-04 10:11 | 47.82888 | 14.41730 | 36017 ft | 424 kts | 238° |
| 2026-05-04 10:11 | 47.79617 | 14.34497 | 36022 ft | 424 kts | 238° |
| 2026-05-04 10:12 | 47.76318 | 14.27219 | 36036 ft | 424 kts | 237° |
| 2026-05-04 10:12 | 47.73040 | 14.20008 | 36038 ft | 425 kts | 237° |
| 2026-05-04 10:13 | 47.69733 | 14.12753 | 36052 ft | 425 kts | 237° |
| 2026-05-04 10:13 | 47.66430 | 14.05527 | 36051 ft | 424 kts | 237° |
| 2026-05-04 10:14 | 47.63115 | 13.98293 | 36052 ft | 425 kts | 237° |
| 2026-05-04 10:16 | 47.49822 | 13.69471 | 36105 ft | 424 kts | 237° |
| 2026-05-04 10:16 | 47.46520 | 13.62359 | 36105 ft | 423 kts | 237° |
| 2026-05-04 10:17 | 47.43192 | 13.55211 | 36111 ft | 424 kts | 237° |
| 2026-05-04 10:19 | 47.29761 | 13.26825 | 36110 ft | 422 kts | 235° |
| 2026-05-04 10:19 | 47.26337 | 13.19888 | 36119 ft | 421 kts | 235° |
| 2026-05-04 10:20 | 47.22899 | 13.12934 | 36124 ft | 422 kts | 235° |
| 2026-05-04 10:20 | 47.19449 | 13.05976 | 36131 ft | 421 kts | 235° |
| 2026-05-04 10:21 | 47.16003 | 12.99043 | 36141 ft | 421 kts | 234° |
| 2026-05-04 10:21 | 47.12566 | 12.92146 | 36144 ft | 421 kts | 234° |
| 2026-05-04 10:22 | 47.07359 | 12.81729 | 36172 ft | 421 kts | 235° |
| 2026-05-04 10:23 | 47.03904 | 12.74837 | 36174 ft | 420 kts | 235° |
| 2026-05-04 10:25 | 46.90101 | 12.47480 | 36166 ft | 419 kts | 234° |
| 2026-05-04 10:25 | 46.86623 | 12.40629 | 36170 ft | 419 kts | 234° |
| 2026-05-04 10:26 | 46.83173 | 12.33850 | 36177 ft | 419 kts | 234° |
| 2026-05-04 10:26 | 46.79491 | 12.27273 | 36195 ft | 420 kts | 224° |
| 2026-05-04 10:27 | 46.75007 | 12.21775 | 36199 ft | 421 kts | 221° |
| 2026-05-04 10:27 | 46.70517 | 12.16355 | 36194 ft | 421 kts | 221° |
| 2026-05-04 10:28 | 46.66049 | 12.10975 | 36180 ft | 420 kts | 221° |
| 2026-05-04 10:28 | 46.61532 | 12.05548 | 36169 ft | 421 kts | 221° |
| 2026-05-04 10:29 | 46.57035 | 12.00157 | 36155 ft | 420 kts | 220° |
| 2026-05-04 10:29 | 46.52533 | 11.94772 | 36147 ft | 420 kts | 220° |
| 2026-05-04 10:30 | 46.48027 | 11.89394 | 36147 ft | 420 kts | 220° |
| 2026-05-04 10:30 | 46.43546 | 11.84058 | 36141 ft | 419 kts | 220° |
| 2026-05-04 10:31 | 46.39055 | 11.78721 | 36139 ft | 419 kts | 220° |
| 2026-05-04 10:32 | 46.23225 | 11.60004 | 36124 ft | 421 kts | 220° |
| 2026-05-04 10:33 | 46.18727 | 11.54713 | 36112 ft | 420 kts | 220° |
| 2026-05-04 10:33 | 46.14221 | 11.49423 | 36107 ft | 419 kts | 220° |
| 2026-05-04 10:34 | 46.09700 | 11.44127 | 36113 ft | 420 kts | 220° |
| 2026-05-04 10:34 | 46.05151 | 11.38810 | 36110 ft | 420 kts | 220° |
| 2026-05-04 10:35 | 46.00637 | 11.33544 | 36104 ft | 421 kts | 220° |
| 2026-05-04 10:35 | 45.96105 | 11.28271 | 36096 ft | 421 kts | 220° |
| 2026-05-04 10:36 | 45.91553 | 11.22984 | 36085 ft | 422 kts | 220° |
| 2026-05-04 10:36 | 45.87015 | 11.17727 | 36090 ft | 421 kts | 220° |
| 2026-05-04 10:37 | 45.82450 | 11.12448 | 36092 ft | 420 kts | 220° |
| 2026-05-04 10:37 | 45.77925 | 11.07227 | 36093 ft | 421 kts | 220° |
| 2026-05-04 10:39 | 45.61964 | 10.88902 | 36080 ft | 421 kts | 220° |
| 2026-05-04 10:40 | 45.57409 | 10.83698 | 36083 ft | 422 kts | 220° |
| 2026-05-04 10:40 | 45.52853 | 10.78503 | 36072 ft | 421 kts | 220° |
| 2026-05-04 10:41 | 45.48268 | 10.73286 | 36077 ft | 422 kts | 220° |
| 2026-05-04 10:41 | 45.43705 | 10.68106 | 36069 ft | 421 kts | 220° |
| 2026-05-04 10:42 | 45.39122 | 10.62915 | 36074 ft | 421 kts | 220° |
| 2026-05-04 10:42 | 45.34560 | 10.57758 | 36076 ft | 421 kts | 220° |
| 2026-05-04 10:43 | 45.29970 | 10.52580 | 36073 ft | 421 kts | 220° |
| 2026-05-04 10:45 | 45.11652 | 10.32024 | 36068 ft | 422 kts | 219° |
| 2026-05-04 10:45 | 45.07032 | 10.26868 | 36071 ft | 421 kts | 219° |
| 2026-05-04 10:46 | 45.02468 | 10.21785 | 36075 ft | 421 kts | 219° |
| 2026-05-04 10:46 | 44.97855 | 10.16657 | 36087 ft | 420 kts | 219° |
| 2026-05-04 10:47 | 44.93283 | 10.11586 | 36077 ft | 420 kts | 219° |
| 2026-05-04 10:47 | 44.88693 | 10.06506 | 36091 ft | 419 kts | 220° |
| 2026-05-04 10:49 | 44.70405 | 9.86368 | 36115 ft | 418 kts | 220° |
| 2026-05-04 10:50 | 44.65815 | 9.81339 | 36442 ft | 421 kts | 220° |
| 2026-05-04 10:51 | 44.49620 | 9.63681 | 37111 ft | 419 kts | 221° |
| 2026-05-04 10:52 | 44.47325 | 9.61189 | 37106 ft | 419 kts | 221° |
| 2026-05-04 10:52 | 44.42720 | 9.56196 | 37100 ft | 418 kts | 220° |
| 2026-05-04 10:54 | 44.24242 | 9.36264 | 37100 ft | 419 kts | 221° |
| 2026-05-04 10:56 | 44.05794 | 9.16527 | 37103 ft | 416 kts | 220° |
| 2026-05-04 10:57 | 44.01194 | 9.11629 | 37096 ft | 415 kts | 220° |
| 2026-05-04 10:57 | 43.96601 | 9.06750 | 37091 ft | 416 kts | 220° |
| 2026-05-04 10:58 | 43.92005 | 9.01876 | 37083 ft | 414 kts | 220° |
| 2026-05-04 10:58 | 43.87419 | 8.97023 | 37088 ft | 414 kts | 221° |
| 2026-05-04 10:59 | 43.82818 | 8.92164 | 37087 ft | 412 kts | 221° |
| 2026-05-04 10:59 | 43.78227 | 8.87325 | 37088 ft | 413 kts | 221° |
| 2026-05-04 11:00 | 43.73602 | 8.82461 | 37083 ft | 411 kts | 221° |
| 2026-05-04 11:01 | 43.55476 | 8.71133 | 37090 ft | 436 kts | 184° |
| 2026-05-04 11:02 | 43.52410 | 8.71196 | 37081 ft | 433 kts | 185° |
| 2026-05-04 11:05 | 43.12209 | 8.49254 | 37064 ft | 411 kts | 211° |
| 2026-05-04 11:06 | 43.06962 | 8.45888 | 37068 ft | 412 kts | 211° |
| 2026-05-04 11:06 | 43.01724 | 8.42535 | 37063 ft | 412 kts | 211° |
| 2026-05-04 11:10 | 42.65257 | 8.19363 | 37064 ft | 411 kts | 211° |
| 2026-05-04 11:12 | 42.44389 | 8.06239 | 37061 ft | 410 kts | 211° |
| 2026-05-04 11:12 | 42.39194 | 8.02986 | 37064 ft | 407 kts | 211° |
| 2026-05-04 11:13 | 42.34032 | 7.99760 | 37057 ft | 409 kts | 211° |
| 2026-05-04 11:13 | 42.29211 | 7.95830 | 37063 ft | 398 kts | 224° |
| 2026-05-04 11:14 | 42.28505 | 7.95059 | 37059 ft | 398 kts | 224° |
| 2026-05-04 11:16 | 42.08968 | 7.74063 | 37044 ft | 397 kts | 224° |
| 2026-05-04 11:16 | 42.04650 | 7.69449 | 37042 ft | 395 kts | 224° |
| 2026-05-04 11:17 | 42.00297 | 7.64806 | 37043 ft | 395 kts | 224° |
| 2026-05-04 11:19 | 41.83107 | 7.46554 | 37042 ft | 392 kts | 224° |
| 2026-05-04 11:19 | 41.78850 | 7.42053 | 37039 ft | 393 kts | 224° |
| 2026-05-04 11:20 | 41.74556 | 7.37522 | 37033 ft | 393 kts | 224° |
| 2026-05-04 11:20 | 41.70271 | 7.33007 | 37041 ft | 393 kts | 223° |
| 2026-05-04 11:22 | 41.54243 | 7.14891 | 37037 ft | 390 kts | 227° |
| 2026-05-04 11:23 | 41.50243 | 7.09980 | 37038 ft | 388 kts | 227° |
| 2026-05-04 11:25 | 41.36265 | 6.92896 | 37036 ft | 386 kts | 227° |
| 2026-05-04 11:25 | 41.32256 | 6.88016 | 37044 ft | 388 kts | 227° |
| 2026-05-04 11:27 | 41.14194 | 6.66132 | 37011 ft | 386 kts | 227° |
| 2026-05-04 11:28 | 41.10168 | 6.61278 | 37007 ft | 387 kts | 227° |
| 2026-05-04 11:28 | 41.06173 | 6.56469 | 37006 ft | 386 kts | 227° |
| 2026-05-04 11:29 | 41.02141 | 6.51624 | 37009 ft | 386 kts | 227° |
| 2026-05-04 11:29 | 40.98132 | 6.46815 | 37006 ft | 385 kts | 227° |
| 2026-05-04 11:33 | 40.70084 | 6.13396 | 37015 ft | 386 kts | 226° |
| 2026-05-04 11:33 | 40.66058 | 6.08632 | 37019 ft | 385 kts | 226° |
| 2026-05-04 11:34 | 40.62035 | 6.03879 | 37012 ft | 383 kts | 226° |
| 2026-05-04 11:34 | 40.58026 | 5.99152 | 37002 ft | 384 kts | 226° |
| 2026-05-04 11:35 | 40.54009 | 5.94422 | 36994 ft | 383 kts | 226° |
| 2026-05-04 11:35 | 40.50021 | 5.89734 | 36999 ft | 384 kts | 226° |
| 2026-05-04 11:36 | 40.45993 | 5.85008 | 36993 ft | 384 kts | 226° |
| 2026-05-04 11:36 | 40.41636 | 5.80870 | 37001 ft | 389 kts | 217° |
| 2026-05-04 11:37 | 40.37047 | 5.77140 | 37001 ft | 390 kts | 217° |
| 2026-05-04 11:37 | 40.32424 | 5.73391 | 36987 ft | 390 kts | 217° |
| 2026-05-04 11:38 | 40.27762 | 5.69616 | 36994 ft | 389 kts | 217° |
| 2026-05-04 11:38 | 40.23112 | 5.65857 | 36986 ft | 388 kts | 217° |
| 2026-05-04 11:39 | 40.18462 | 5.62104 | 36988 ft | 390 kts | 217° |
| 2026-05-04 11:41 | 40.02363 | 5.49159 | 36980 ft | 389 kts | 217° |
| 2026-05-04 11:41 | 39.97694 | 5.45419 | 36988 ft | 388 kts | 217° |
| 2026-05-04 11:42 | 39.93043 | 5.41698 | 36989 ft | 389 kts | 217° |
| 2026-05-04 11:42 | 39.88386 | 5.37979 | 36994 ft | 390 kts | 217° |
| 2026-05-04 11:43 | 39.83740 | 5.34274 | 37000 ft | 390 kts | 216° |
| 2026-05-04 11:43 | 39.79110 | 5.30589 | 37002 ft | 390 kts | 216° |
| 2026-05-04 11:44 | 39.74476 | 5.26906 | 37004 ft | 391 kts | 216° |
| 2026-05-04 11:44 | 39.69805 | 5.23200 | 37000 ft | 390 kts | 216° |
| 2026-05-04 11:45 | 39.65129 | 5.19495 | 37006 ft | 391 kts | 216° |
| 2026-05-04 11:45 | 39.60471 | 5.15810 | 37002 ft | 391 kts | 216° |
| 2026-05-04 11:46 | 39.55761 | 5.12092 | 37002 ft | 390 kts | 216° |
| 2026-05-04 11:46 | 39.51085 | 5.08405 | 37003 ft | 390 kts | 216° |
| 2026-05-04 11:47 | 39.46389 | 5.04707 | 37005 ft | 391 kts | 216° |
| 2026-05-04 11:47 | 39.41700 | 5.01023 | 36997 ft | 390 kts | 216° |
| 2026-05-04 11:48 | 39.37000 | 4.97335 | 37005 ft | 392 kts | 216° |
| 2026-05-04 11:48 | 39.32322 | 4.93670 | 37000 ft | 392 kts | 216° |
| 2026-05-04 11:49 | 39.27592 | 4.89970 | 36994 ft | 391 kts | 216° |
| 2026-05-04 11:49 | 39.22902 | 4.86308 | 36998 ft | 392 kts | 216° |
| 2026-05-04 11:50 | 39.18179 | 4.82625 | 36997 ft | 392 kts | 216° |
| 2026-05-04 11:50 | 39.13459 | 4.78951 | 36994 ft | 392 kts | 216° |
| 2026-05-04 11:51 | 39.08791 | 4.75323 | 36990 ft | 391 kts | 216° |
| 2026-05-04 11:51 | 39.04108 | 4.71689 | 36993 ft | 391 kts | 216° |
| 2026-05-04 11:52 | 38.99321 | 4.68164 | 36982 ft | 396 kts | 209° |
| 2026-05-04 11:52 | 38.94169 | 4.65462 | 36977 ft | 399 kts | 208° |
| 2026-05-04 11:53 | 38.88985 | 4.62763 | 37314 ft | 399 kts | 208° |
| 2026-05-04 11:53 | 38.86392 | 4.61415 | 36622 ft | 396 kts | 208° |
| 2026-05-04 11:53 | 38.83870 | 4.60104 | 36783 ft | 398 kts | 208° |
| 2026-05-04 11:53 | 38.81267 | 4.58752 | 37260 ft | 400 kts | 208° |
| 2026-05-04 11:55 | 38.63257 | 4.49430 | 36993 ft | 398 kts | 208° |
| 2026-05-04 11:56 | 38.58123 | 4.46781 | 36987 ft | 398 kts | 207° |
| 2026-05-04 11:56 | 38.52996 | 4.44140 | 36993 ft | 399 kts | 208° |
| 2026-05-04 11:57 | 38.47866 | 4.41502 | 36989 ft | 399 kts | 208° |
| 2026-05-04 11:57 | 38.42721 | 4.38860 | 36981 ft | 400 kts | 207° |
| 2026-05-04 11:58 | 38.37528 | 4.36198 | 36985 ft | 401 kts | 207° |
| 2026-05-04 11:58 | 38.32364 | 4.33554 | 36990 ft | 401 kts | 207° |
| 2026-05-04 11:59 | 38.27166 | 4.30898 | 36955 ft | 400 kts | 207° |
| 2026-05-04 11:59 | 38.24617 | 4.29597 | 36621 ft | 394 kts | 207° |
| 2026-05-04 11:59 | 38.22062 | 4.28294 | 36316 ft | 390 kts | 207° |
| 2026-05-04 11:59 | 38.19539 | 4.27007 | 36021 ft | 392 kts | 207° |
| 2026-05-04 12:00 | 38.16994 | 4.25711 | 35731 ft | 392 kts | 207° |
| 2026-05-04 12:00 | 38.14459 | 4.24420 | 35437 ft | 393 kts | 207° |
| 2026-05-04 12:00 | 38.11917 | 4.23127 | 35142 ft | 395 kts | 207° |
| 2026-05-04 12:00 | 38.09376 | 4.21835 | 34849 ft | 398 kts | 206° |
| 2026-05-04 12:01 | 38.06790 | 4.20522 | 34550 ft | 400 kts | 206° |
| 2026-05-04 12:01 | 38.04200 | 4.19208 | 34254 ft | 401 kts | 206° |
| 2026-05-04 12:02 | 37.88771 | 4.11399 | 29329 ft | 401 kts | 206° |
| 2026-05-04 12:03 | 37.86194 | 4.10098 | 27927 ft | 404 kts | 206° |
| 2026-05-04 12:03 | 37.83615 | 4.08799 | 26714 ft | 401 kts | 206° |
| 2026-05-04 12:03 | 37.81047 | 4.07505 | 25690 ft | 393 kts | 205° |
| 2026-05-04 12:03 | 37.78529 | 4.06237 | 24748 ft | 384 kts | 206° |
| 2026-05-04 12:04 | 37.76085 | 4.05006 | 23785 ft | 378 kts | 205° |
| 2026-05-04 12:04 | 37.73661 | 4.03788 | 22798 ft | 372 kts | 206° |
| 2026-05-04 12:04 | 37.71288 | 4.02595 | 21802 ft | 367 kts | 206° |
| 2026-05-04 12:04 | 37.68947 | 4.01420 | 20803 ft | 362 kts | 205° |
| 2026-05-04 12:05 | 37.66644 | 4.00264 | 20050 ft | 359 kts | 206° |
| 2026-05-04 12:05 | 37.64326 | 3.99100 | 19607 ft | 357 kts | 206° |
| 2026-05-04 12:05 | 37.62011 | 3.97940 | 19130 ft | 353 kts | 206° |
| 2026-05-04 12:05 | 37.59743 | 3.96805 | 18666 ft | 349 kts | 206° |
| 2026-05-04 12:06 | 37.57520 | 3.95692 | 18212 ft | 347 kts | 206° |
| 2026-05-04 12:06 | 37.55289 | 3.94576 | 17766 ft | 344 kts | 206° |
| 2026-05-04 12:06 | 37.53071 | 3.93467 | 17327 ft | 341 kts | 206° |
| 2026-05-04 12:06 | 37.50849 | 3.92356 | 16890 ft | 342 kts | 206° |
| 2026-05-04 12:07 | 37.48655 | 3.91262 | 16439 ft | 339 kts | 206° |
| 2026-05-04 12:07 | 37.46479 | 3.90175 | 15994 ft | 335 kts | 206° |
| 2026-05-04 12:07 | 37.44329 | 3.89104 | 15561 ft | 333 kts | 206° |
| 2026-05-04 12:07 | 37.42172 | 3.88029 | 15125 ft | 331 kts | 206° |
| 2026-05-04 12:08 | 37.40025 | 3.86960 | 14692 ft | 330 kts | 206° |
| 2026-05-04 12:08 | 37.37915 | 3.85909 | 14272 ft | 328 kts | 206° |
| 2026-05-04 12:08 | 37.35793 | 3.84853 | 13847 ft | 326 kts | 206° |
| 2026-05-04 12:08 | 37.33690 | 3.83809 | 13398 ft | 325 kts | 206° |
| 2026-05-04 12:09 | 37.31576 | 3.82759 | 12973 ft | 321 kts | 206° |
| 2026-05-04 12:09 | 37.29525 | 3.81740 | 12543 ft | 320 kts | 206° |
| 2026-05-04 12:09 | 37.27434 | 3.80702 | 12125 ft | 319 kts | 206° |
| 2026-05-04 12:09 | 37.25405 | 3.79697 | 11796 ft | 308 kts | 205° |
| 2026-05-04 12:10 | 37.23442 | 3.78724 | 11468 ft | 304 kts | 205° |
| 2026-05-04 12:10 | 37.21490 | 3.77757 | 11138 ft | 301 kts | 205° |
| 2026-05-04 12:10 | 37.19542 | 3.76792 | 10800 ft | 301 kts | 205° |
| 2026-05-04 12:10 | 37.17575 | 3.75819 | 10459 ft | 299 kts | 205° |
| 2026-05-04 12:11 | 37.15649 | 3.74866 | 10126 ft | 300 kts | 205° |
| 2026-05-04 12:11 | 37.13724 | 3.73915 | 9793 ft | 298 kts | 204° |
| 2026-05-04 12:11 | 37.11772 | 3.72950 | 9454 ft | 297 kts | 204° |
| 2026-05-04 12:11 | 37.09853 | 3.72003 | 9117 ft | 297 kts | 204° |
| 2026-05-04 12:12 | 37.07932 | 3.71055 | 8797 ft | 296 kts | 204° |
| 2026-05-04 12:12 | 37.06016 | 3.70110 | 8476 ft | 296 kts | 204° |
| 2026-05-04 12:12 | 37.04116 | 3.69173 | 8137 ft | 297 kts | 204° |
| 2026-05-04 12:12 | 37.02179 | 3.68219 | 7822 ft | 297 kts | 203° |
| 2026-05-04 12:13 | 37.00275 | 3.67282 | 7470 ft | 296 kts | 203° |
| 2026-05-04 12:14 | 36.86922 | 3.60722 | 5126 ft | 290 kts | 202° |
| 2026-05-04 12:15 | 36.85038 | 3.59798 | 4801 ft | 290 kts | 202° |
| 2026-05-04 12:15 | 36.83172 | 3.58884 | 4529 ft | 289 kts | 201° |
| 2026-05-04 12:15 | 36.81324 | 3.57890 | 4276 ft | 289 kts | 212° |
| 2026-05-04 12:15 | 36.79990 | 3.56026 | 4012 ft | 292 kts | 243° |
| 2026-05-04 12:16 | 36.79614 | 3.53547 | 3771 ft | 296 kts | 270° |
| 2026-05-04 12:16 | 36.79723 | 3.51048 | 3650 ft | 275 kts | 271° |
| 2026-05-04 12:16 | 36.79821 | 3.48747 | 3552 ft | 254 kts | 270° |
| 2026-05-04 12:16 | 36.79906 | 3.46640 | 3455 ft | 237 kts | 270° |
| 2026-05-04 12:17 | 36.79985 | 3.44626 | 3337 ft | 223 kts | 270° |
| 2026-05-04 12:17 | 36.80058 | 3.42745 | 3219 ft | 210 kts | 270° |
| 2026-05-04 12:17 | 36.80126 | 3.40966 | 3008 ft | 204 kts | 270° |
| 2026-05-04 12:17 | 36.79969 | 3.39304 | 2914 ft | 187 kts | 242° |
| 2026-05-04 12:18 | 36.79213 | 3.38017 | 2648 ft | 183 kts | 230° |
| 2026-05-04 12:18 | 36.78427 | 3.36782 | 2425 ft | 182 kts | 230° |
| 2026-05-04 12:18 | 36.77650 | 3.35527 | 2153 ft | 179 kts | 231° |
| 2026-05-04 12:18 | 36.76905 | 3.34316 | 1898 ft | 176 kts | 230° |
| 2026-05-04 12:19 | 36.76181 | 3.33138 | 1696 ft | 162 kts | 230° |
| 2026-05-04 12:19 | 36.75520 | 3.32054 | 1470 ft | 153 kts | 230° |
| 2026-05-04 12:19 | 36.74873 | 3.30995 | 1257 ft | 152 kts | 231° |
| 2026-05-04 12:19 | 36.74265 | 3.29999 | 1042 ft | 138 kts | 231° |
| 2026-05-04 12:20 | 36.73698 | 3.29079 | 854 ft | 130 kts | 230° |
| 2026-05-04 12:20 | 36.73134 | 3.28174 | 700 ft | 132 kts | 232° |
| 2026-05-04 12:20 | 36.72581 | 3.27249 | 533 ft | 134 kts | 232° |
| 2026-05-04 12:20 | 36.72006 | 3.26323 | 357 ft | 135 kts | 232° |
| 2026-05-04 12:21 | 36.71437 | 3.25386 | 185 ft | 134 kts | 231° |
| 2026-05-04 12:21 | 36.70878 | 3.24469 | 87 ft | 121 kts | 233° |
| 2026-05-04 12:21 | 36.70435 | 3.23739 | 87 ft | 91 kts | 232° |
| 2026-05-04 12:21 | 36.70086 | 3.23171 | 87 ft | 73 kts | 231° |
| 2026-05-04 12:22 | 36.69797 | 3.22688 | 83 ft | 66 kts | 232° |
| 2026-05-04 12:22 | 36.69538 | 3.22271 | 79 ft | 47 kts | 233° |
| 2026-05-04 12:22 | 36.69391 | 3.22026 | 76 ft | 24 kts | 242° |
| 2026-05-04 12:22 | 36.69381 | 3.21816 | 75 ft | 25 kts | 270° |
| 2026-05-04 12:23 | 36.69380 | 3.21589 | 73 ft | 27 kts | 270° |
| 2026-05-04 12:23 | 36.69382 | 3.21346 | 73 ft | 28 kts | 271° |
| 2026-05-04 12:23 | 36.69384 | 3.21090 | 72 ft | 29 kts | 270° |
| 2026-05-04 12:23 | 36.69383 | 3.20911 | 71 ft | 12 kts | 277° |
| 2026-05-04 12:24 | 36.69434 | 3.20822 | 71 ft | 12 kts | 282° |
| 2026-05-04 12:24 | 36.69436 | 3.20703 | 70 ft | 14 kts | 271° |
| 2026-05-04 12:24 | 36.69441 | 3.20564 | 69 ft | 17 kts | 272° |
| 2026-05-04 12:24 | 36.69444 | 3.20401 | 68 ft | 19 kts | 271° |
| 2026-05-04 12:25 | 36.69449 | 3.20227 | 67 ft | 20 kts | 272° |
| 2026-05-04 12:25 | 36.69453 | 3.20053 | 66 ft | 20 kts | 271° |
| 2026-05-04 12:25 | 36.69452 | 3.19925 | 66 ft | 10 kts | 261° |
| 2026-05-04 12:25 | 36.69446 | 3.19835 | 66 ft | 9 kts | 270° |
| 2026-05-04 12:26 | 36.69447 | 3.19801 | 65 ft | 0 kts | 271° |
| 2026-05-04 12:26 | 36.69447 | 3.19800 | 65 ft | 0 kts | 271° |